sensor_id;sensor_type;location;lat;lon;timestamp;P1;durP1;ratioP1;P2;durP2;ratioP2
33152;SDS011;19509;43.862;26.176;2023-01-09T00:00:59;4.47;;;4.13;;
33152;SDS011;19509;43.862;26.176;2023-01-09T00:03:25;3.83;;;3.63;;
33152;SDS011;19509;43.862;26.176;2023-01-09T00:05:51;3.93;;;3.83;;
33152;SDS011;19509;43.862;26.176;2023-01-09T00:08:16;3.77;;;3.67;;
33152;SDS011;19509;43.862;26.176;2023-01-09T00:10:43;3.77;;;3.67;;
33152;SDS011;19509;43.862;26.176;2023-01-09T00:13:11;3.20;;;3.10;;
33152;SDS011;19509;43.862;26.176;2023-01-09T00:15:38;3.20;;;3.10;;
33152;SDS011;19509;43.862;26.176;2023-01-09T00:18:05;3.67;;;3.40;;
33152;SDS011;19509;43.862;26.176;2023-01-09T00:20:30;3.40;;;3.30;;
33152;SDS011;19509;43.862;26.176;2023-01-09T00:22:56;3.30;;;3.20;;
33152;SDS011;19509;43.862;26.176;2023-01-09T00:25:21;3.40;;;3.30;;
33152;SDS011;19509;43.862;26.176;2023-01-09T00:27:47;3.33;;;3.23;;
33152;SDS011;19509;43.862;26.176;2023-01-09T00:30:12;3.73;;;3.63;;
33152;SDS011;19509;43.862;26.176;2023-01-09T00:32:38;4.70;;;4.60;;
33152;SDS011;19509;43.862;26.176;2023-01-09T00:35:04;4.40;;;4.30;;
33152;SDS011;19509;43.862;26.176;2023-01-09T00:37:31;7.00;;;4.73;;
33152;SDS011;19509;43.862;26.176;2023-01-09T00:39:56;16.00;;;5.30;;
33152;SDS011;19509;43.862;26.176;2023-01-09T00:42:23;6.30;;;5.30;;
33152;SDS011;19509;43.862;26.176;2023-01-09T00:44:56;14.00;;;5.60;;
33152;SDS011;19509;43.862;26.176;2023-01-09T00:47:26;70.17;;;9.77;;
33152;SDS011;19509;43.862;26.176;2023-01-09T00:49:57;57.23;;;8.70;;
33152;SDS011;19509;43.862;26.176;2023-01-09T00:52:28;34.03;;;6.50;;
33152;SDS011;19509;43.862;26.176;2023-01-09T00:54:56;123.33;;;13.03;;
33152;SDS011;19509;43.862;26.176;2023-01-09T00:57:22;61.43;;;8.63;;
33152;SDS011;19509;43.862;26.176;2023-01-09T00:59:48;40.80;;;6.93;;
33152;SDS011;19509;43.862;26.176;2023-01-09T01:02:14;31.23;;;5.60;;
33152;SDS011;19509;43.862;26.176;2023-01-09T01:04:39;26.47;;;5.03;;
33152;SDS011;19509;43.862;26.176;2023-01-09T01:07:23;18.03;;;4.80;;
33152;SDS011;19509;43.862;26.176;2023-01-09T01:10:06;23.53;;;5.70;;
33152;SDS011;19509;43.862;26.176;2023-01-09T01:12:44;12.60;;;5.23;;
33152;SDS011;19509;43.862;26.176;2023-01-09T01:15:09;7.67;;;4.20;;
33152;SDS011;19509;43.862;26.176;2023-01-09T01:17:36;13.77;;;4.63;;
33152;SDS011;19509;43.862;26.176;2023-01-09T01:20:03;5.53;;;3.93;;
33152;SDS011;19509;43.862;26.176;2023-01-09T01:22:31;5.90;;;4.13;;
33152;SDS011;19509;43.862;26.176;2023-01-09T01:24:57;4.00;;;3.90;;
33152;SDS011;19509;43.862;26.176;2023-01-09T01:27:22;3.90;;;3.80;;
33152;SDS011;19509;43.862;26.176;2023-01-09T01:29:48;3.77;;;3.67;;
33152;SDS011;19509;43.862;26.176;2023-01-09T01:32:14;3.87;;;3.67;;
33152;SDS011;19509;43.862;26.176;2023-01-09T01:34:39;4.37;;;3.90;;
33152;SDS011;19509;43.862;26.176;2023-01-09T01:37:05;4.17;;;3.87;;
33152;SDS011;19509;43.862;26.176;2023-01-09T01:39:30;4.37;;;4.10;;
33152;SDS011;19509;43.862;26.176;2023-01-09T01:41:56;10.23;;;4.00;;
33152;SDS011;19509;43.862;26.176;2023-01-09T01:47:18;3.97;;;3.87;;
33152;SDS011;19509;43.862;26.176;2023-01-09T01:49:45;4.27;;;4.17;;
33152;SDS011;19509;43.862;26.176;2023-01-09T01:52:11;3.27;;;3.17;;
33152;SDS011;19509;43.862;26.176;2023-01-09T01:54:37;3.70;;;3.60;;
33152;SDS011;19509;43.862;26.176;2023-01-09T01:57:03;3.50;;;3.40;;
33152;SDS011;19509;43.862;26.176;2023-01-09T01:59:49;3.63;;;3.43;;
33152;SDS011;19509;43.862;26.176;2023-01-09T02:02:22;3.40;;;3.10;;
33152;SDS011;19509;43.862;26.176;2023-01-09T02:04:52;4.10;;;3.90;;
33152;SDS011;19509;43.862;26.176;2023-01-09T02:07:20;3.77;;;3.67;;
33152;SDS011;19509;43.862;26.176;2023-01-09T02:09:45;3.40;;;3.37;;
33152;SDS011;19509;43.862;26.176;2023-01-09T02:12:15;3.80;;;3.30;;
33152;SDS011;19509;43.862;26.176;2023-01-09T02:14:41;3.70;;;3.50;;
33152;SDS011;19509;43.862;26.176;2023-01-09T02:17:15;4.30;;;3.87;;
33152;SDS011;19509;43.862;26.176;2023-01-09T02:31:24;3.37;;;3.27;;
33152;SDS011;19509;43.862;26.176;2023-01-09T02:36:52;6.23;;;3.50;;
33152;SDS011;19509;43.862;26.176;2023-01-09T02:42:21;3.60;;;3.50;;
33152;SDS011;19509;43.862;26.176;2023-01-09T02:44:48;4.30;;;4.10;;
33152;SDS011;19509;43.862;26.176;2023-01-09T02:49:39;3.83;;;3.73;;
33152;SDS011;19509;43.862;26.176;2023-01-09T03:02:40;3.80;;;3.70;;
33152;SDS011;19509;43.862;26.176;2023-01-09T03:08:00;3.80;;;3.70;;
33152;SDS011;19509;43.862;26.176;2023-01-09T03:13:03;3.70;;;3.60;;
33152;SDS011;19509;43.862;26.176;2023-01-09T03:15:34;3.73;;;3.63;;
33152;SDS011;19509;43.862;26.176;2023-01-09T03:18:02;3.53;;;3.43;;
33152;SDS011;19509;43.862;26.176;2023-01-09T03:20:30;3.37;;;3.27;;
33152;SDS011;19509;43.862;26.176;2023-01-09T03:22:57;3.40;;;3.30;;
33152;SDS011;19509;43.862;26.176;2023-01-09T03:25:24;3.37;;;3.27;;
33152;SDS011;19509;43.862;26.176;2023-01-09T03:27:52;3.50;;;3.40;;
33152;SDS011;19509;43.862;26.176;2023-01-09T03:30:20;3.23;;;3.13;;
33152;SDS011;19509;43.862;26.176;2023-01-09T03:32:46;3.33;;;3.23;;
33152;SDS011;19509;43.862;26.176;2023-01-09T03:35:12;2.80;;;2.80;;
33152;SDS011;19509;43.862;26.176;2023-01-09T03:37:37;3.33;;;3.23;;
33152;SDS011;19509;43.862;26.176;2023-01-09T03:40:03;3.30;;;3.20;;
33152;SDS011;19509;43.862;26.176;2023-01-09T03:42:29;3.20;;;3.10;;
33152;SDS011;19509;43.862;26.176;2023-01-09T03:44:54;3.33;;;3.23;;
33152;SDS011;19509;43.862;26.176;2023-01-09T03:47:19;3.10;;;3.00;;
33152;SDS011;19509;43.862;26.176;2023-01-09T03:49:45;3.80;;;3.70;;
33152;SDS011;19509;43.862;26.176;2023-01-09T03:52:11;3.80;;;3.70;;
33152;SDS011;19509;43.862;26.176;2023-01-09T03:54:38;2.90;;;2.90;;
33152;SDS011;19509;43.862;26.176;2023-01-09T03:57:03;3.47;;;3.37;;
33152;SDS011;19509;43.862;26.176;2023-01-09T03:59:29;3.27;;;3.17;;
33152;SDS011;19509;43.862;26.176;2023-01-09T04:01:54;3.50;;;3.40;;
33152;SDS011;19509;43.862;26.176;2023-01-09T04:04:20;3.50;;;3.40;;
33152;SDS011;19509;43.862;26.176;2023-01-09T04:06:46;3.40;;;3.30;;
33152;SDS011;19509;43.862;26.176;2023-01-09T04:09:11;3.60;;;3.50;;
33152;SDS011;19509;43.862;26.176;2023-01-09T04:11:37;3.50;;;3.40;;
33152;SDS011;19509;43.862;26.176;2023-01-09T04:14:02;4.40;;;4.20;;
33152;SDS011;19509;43.862;26.176;2023-01-09T04:16:28;5.30;;;4.80;;
33152;SDS011;19509;43.862;26.176;2023-01-09T04:18:53;4.97;;;4.77;;
33152;SDS011;19509;43.862;26.176;2023-01-09T04:21:19;5.27;;;5.00;;
33152;SDS011;19509;43.862;26.176;2023-01-09T04:23:44;3.83;;;3.73;;
33152;SDS011;19509;43.862;26.176;2023-01-09T04:26:10;3.57;;;3.47;;
33152;SDS011;19509;43.862;26.176;2023-01-09T04:28:36;3.37;;;3.27;;
33152;SDS011;19509;43.862;26.176;2023-01-09T04:31:01;3.80;;;3.70;;
33152;SDS011;19509;43.862;26.176;2023-01-09T04:33:27;3.47;;;3.37;;
33152;SDS011;19509;43.862;26.176;2023-01-09T04:35:53;3.40;;;3.30;;
33152;SDS011;19509;43.862;26.176;2023-01-09T04:38:18;3.33;;;3.23;;
33152;SDS011;19509;43.862;26.176;2023-01-09T04:40:47;3.67;;;3.57;;
33152;SDS011;19509;43.862;26.176;2023-01-09T04:43:13;3.80;;;3.70;;
33152;SDS011;19509;43.862;26.176;2023-01-09T04:45:39;4.50;;;4.37;;
33152;SDS011;19509;43.862;26.176;2023-01-09T04:48:05;5.53;;;5.27;;
33152;SDS011;19509;43.862;26.176;2023-01-09T04:50:30;3.70;;;3.60;;
33152;SDS011;19509;43.862;26.176;2023-01-09T04:52:56;7.13;;;4.03;;
33152;SDS011;19509;43.862;26.176;2023-01-09T04:55:21;11.13;;;4.37;;
33152;SDS011;19509;43.862;26.176;2023-01-09T04:57:47;6.73;;;5.97;;
33152;SDS011;19509;43.862;26.176;2023-01-09T05:00:13;5.70;;;5.40;;
33152;SDS011;19509;43.862;26.176;2023-01-09T05:02:39;5.50;;;5.40;;
33152;SDS011;19509;43.862;26.176;2023-01-09T05:05:05;3.80;;;3.70;;
33152;SDS011;19509;43.862;26.176;2023-01-09T05:07:31;3.40;;;3.30;;
33152;SDS011;19509;43.862;26.176;2023-01-09T05:09:57;3.10;;;3.00;;
33152;SDS011;19509;43.862;26.176;2023-01-09T05:12:23;3.17;;;3.07;;
33152;SDS011;19509;43.862;26.176;2023-01-09T05:14:48;6.00;;;4.03;;
33152;SDS011;19509;43.862;26.176;2023-01-09T05:17:14;4.33;;;4.10;;
33152;SDS011;19509;43.862;26.176;2023-01-09T05:19:39;5.93;;;5.23;;
33152;SDS011;19509;43.862;26.176;2023-01-09T05:22:06;11.90;;;5.20;;
33152;SDS011;19509;43.862;26.176;2023-01-09T05:24:32;6.70;;;5.30;;
33152;SDS011;19509;43.862;26.176;2023-01-09T05:26:57;20.20;;;4.97;;
33152;SDS011;19509;43.862;26.176;2023-01-09T05:29:23;7.93;;;4.50;;
33152;SDS011;19509;43.862;26.176;2023-01-09T05:31:49;8.43;;;4.27;;
33152;SDS011;19509;43.862;26.176;2023-01-09T05:34:16;23.13;;;5.03;;
33152;SDS011;19509;43.862;26.176;2023-01-09T05:36:42;35.43;;;6.13;;
33152;SDS011;19509;43.862;26.176;2023-01-09T05:39:07;20.27;;;5.83;;
33152;SDS011;19509;43.862;26.176;2023-01-09T05:41:33;16.57;;;5.53;;
33152;SDS011;19509;43.862;26.176;2023-01-09T05:43:58;29.40;;;6.10;;
33152;SDS011;19509;43.862;26.176;2023-01-09T05:46:24;16.53;;;4.97;;
33152;SDS011;19509;43.862;26.176;2023-01-09T05:48:49;42.47;;;6.63;;
33152;SDS011;19509;43.862;26.176;2023-01-09T05:51:15;26.93;;;5.27;;
33152;SDS011;19509;43.862;26.176;2023-01-09T05:53:41;17.57;;;5.20;;
33152;SDS011;19509;43.862;26.176;2023-01-09T05:56:06;34.80;;;6.20;;
33152;SDS011;19509;43.862;26.176;2023-01-09T05:58:32;27.23;;;5.90;;
33152;SDS011;19509;43.862;26.176;2023-01-09T06:00:57;28.37;;;6.27;;
33152;SDS011;19509;43.862;26.176;2023-01-09T06:03:23;15.93;;;5.37;;
33152;SDS011;19509;43.862;26.176;2023-01-09T06:05:48;25.23;;;6.47;;
33152;SDS011;19509;43.862;26.176;2023-01-09T06:08:15;27.73;;;5.93;;
33152;SDS011;19509;43.862;26.176;2023-01-09T06:10:41;33.70;;;6.50;;
33152;SDS011;19509;43.862;26.176;2023-01-09T06:13:07;30.17;;;5.53;;
33152;SDS011;19509;43.862;26.176;2023-01-09T06:15:32;40.27;;;7.07;;
33152;SDS011;19509;43.862;26.176;2023-01-09T06:17:58;33.80;;;7.10;;
33152;SDS011;19509;43.862;26.176;2023-01-09T06:20:23;28.53;;;6.53;;
33152;SDS011;19509;43.862;26.176;2023-01-09T06:22:49;28.27;;;5.93;;
33152;SDS011;19509;43.862;26.176;2023-01-09T06:25:16;25.00;;;6.10;;
33152;SDS011;19509;43.862;26.176;2023-01-09T06:27:42;35.40;;;7.43;;
33152;SDS011;19509;43.862;26.176;2023-01-09T06:30:07;33.67;;;6.97;;
33152;SDS011;19509;43.862;26.176;2023-01-09T06:32:33;39.93;;;10.40;;
33152;SDS011;19509;43.862;26.176;2023-01-09T06:34:59;43.20;;;8.23;;
33152;SDS011;19509;43.862;26.176;2023-01-09T06:37:24;27.43;;;7.00;;
33152;SDS011;19509;43.862;26.176;2023-01-09T06:39:50;52.07;;;6.87;;
33152;SDS011;19509;43.862;26.176;2023-01-09T06:42:18;51.13;;;6.77;;
33152;SDS011;19509;43.862;26.176;2023-01-09T06:44:43;43.13;;;6.03;;
33152;SDS011;19509;43.862;26.176;2023-01-09T06:47:09;38.23;;;6.73;;
33152;SDS011;19509;43.862;26.176;2023-01-09T06:49:34;42.60;;;6.77;;
33152;SDS011;19509;43.862;26.176;2023-01-09T06:52:00;41.37;;;6.23;;
33152;SDS011;19509;43.862;26.176;2023-01-09T06:54:29;30.43;;;6.33;;
33152;SDS011;19509;43.862;26.176;2023-01-09T06:56:55;28.63;;;7.43;;
33152;SDS011;19509;43.862;26.176;2023-01-09T06:59:21;30.13;;;7.57;;
33152;SDS011;19509;43.862;26.176;2023-01-09T07:01:46;27.63;;;6.90;;
33152;SDS011;19509;43.862;26.176;2023-01-09T07:04:11;22.23;;;5.90;;
33152;SDS011;19509;43.862;26.176;2023-01-09T07:06:37;23.80;;;7.00;;
33152;SDS011;19509;43.862;26.176;2023-01-09T07:09:03;24.20;;;5.03;;
33152;SDS011;19509;43.862;26.176;2023-01-09T07:11:30;31.37;;;5.10;;
33152;SDS011;19509;43.862;26.176;2023-01-09T07:13:56;29.77;;;5.77;;
33152;SDS011;19509;43.862;26.176;2023-01-09T07:16:21;11.30;;;4.20;;
33152;SDS011;19509;43.862;26.176;2023-01-09T07:18:47;13.33;;;3.73;;
33152;SDS011;19509;43.862;26.176;2023-01-09T07:21:12;11.30;;;3.17;;
33152;SDS011;19509;43.862;26.176;2023-01-09T07:23:38;25.03;;;4.13;;
33152;SDS011;19509;43.862;26.176;2023-01-09T07:26:03;34.50;;;4.40;;
33152;SDS011;19509;43.862;26.176;2023-01-09T07:28:29;13.60;;;5.37;;
33152;SDS011;19509;43.862;26.176;2023-01-09T07:30:55;31.20;;;4.97;;
33152;SDS011;19509;43.862;26.176;2023-01-09T07:33:22;16.70;;;4.17;;
33152;SDS011;19509;43.862;26.176;2023-01-09T07:35:49;20.93;;;4.33;;
33152;SDS011;19509;43.862;26.176;2023-01-09T07:38:15;24.13;;;4.37;;
33152;SDS011;19509;43.862;26.176;2023-01-09T07:40:41;25.00;;;4.23;;
33152;SDS011;19509;43.862;26.176;2023-01-09T07:43:06;11.73;;;3.50;;
33152;SDS011;19509;43.862;26.176;2023-01-09T07:45:31;8.80;;;4.00;;
33152;SDS011;19509;43.862;26.176;2023-01-09T07:47:57;9.27;;;4.40;;
33152;SDS011;19509;43.862;26.176;2023-01-09T07:50:23;8.80;;;3.97;;
33152;SDS011;19509;43.862;26.176;2023-01-09T07:52:48;3.73;;;3.00;;
33152;SDS011;19509;43.862;26.176;2023-01-09T07:55:14;10.00;;;2.90;;
33152;SDS011;19509;43.862;26.176;2023-01-09T07:57:39;3.83;;;3.40;;
33152;SDS011;19509;43.862;26.176;2023-01-09T08:00:05;4.53;;;3.40;;
33152;SDS011;19509;43.862;26.176;2023-01-09T08:02:32;7.07;;;3.37;;
33152;SDS011;19509;43.862;26.176;2023-01-09T08:04:57;3.70;;;3.40;;
33152;SDS011;19509;43.862;26.176;2023-01-09T08:07:23;9.90;;;3.93;;
33152;SDS011;19509;43.862;26.176;2023-01-09T08:09:48;16.63;;;3.93;;
33152;SDS011;19509;43.862;26.176;2023-01-09T08:12:14;11.13;;;3.27;;
33152;SDS011;19509;43.862;26.176;2023-01-09T08:14:40;14.57;;;3.90;;
33152;SDS011;19509;43.862;26.176;2023-01-09T08:17:05;12.57;;;3.27;;
33152;SDS011;19509;43.862;26.176;2023-01-09T08:19:30;17.70;;;4.13;;
33152;SDS011;19509;43.862;26.176;2023-01-09T08:21:56;9.90;;;3.80;;
33152;SDS011;19509;43.862;26.176;2023-01-09T08:24:22;5.13;;;3.40;;
33152;SDS011;19509;43.862;26.176;2023-01-09T08:26:47;27.13;;;5.23;;
33152;SDS011;19509;43.862;26.176;2023-01-09T08:29:13;11.07;;;4.23;;
33152;SDS011;19509;43.862;26.176;2023-01-09T08:31:38;49.23;;;6.40;;
33152;SDS011;19509;43.862;26.176;2023-01-09T08:34:03;61.07;;;6.60;;
33152;SDS011;19509;43.862;26.176;2023-01-09T08:36:30;50.87;;;7.47;;
33152;SDS011;19509;43.862;26.176;2023-01-09T08:38:56;53.47;;;6.30;;
33152;SDS011;19509;43.862;26.176;2023-01-09T08:41:21;63.43;;;6.30;;
33152;SDS011;19509;43.862;26.176;2023-01-09T08:44:05;59.40;;;7.50;;
33152;SDS011;19509;43.862;26.176;2023-01-09T08:46:49;24.30;;;5.00;;
33152;SDS011;19509;43.862;26.176;2023-01-09T08:49:30;23.23;;;5.50;;
33152;SDS011;19509;43.862;26.176;2023-01-09T08:51:56;42.23;;;6.07;;
33152;SDS011;19509;43.862;26.176;2023-01-09T08:54:22;33.97;;;6.30;;
33152;SDS011;19509;43.862;26.176;2023-01-09T08:56:47;27.67;;;6.20;;
33152;SDS011;19509;43.862;26.176;2023-01-09T08:59:14;19.07;;;6.17;;
33152;SDS011;19509;43.862;26.176;2023-01-09T09:01:40;39.33;;;6.50;;
33152;SDS011;19509;43.862;26.176;2023-01-09T09:04:05;23.00;;;5.10;;
33152;SDS011;19509;43.862;26.176;2023-01-09T09:06:31;49.40;;;6.70;;
33152;SDS011;19509;43.862;26.176;2023-01-09T09:08:58;27.43;;;5.67;;
33152;SDS011;19509;43.862;26.176;2023-01-09T09:11:30;6.20;;;3.73;;
33152;SDS011;19509;43.862;26.176;2023-01-09T09:13:57;47.03;;;8.00;;
33152;SDS011;19509;43.862;26.176;2023-01-09T09:16:23;45.93;;;6.50;;
33152;SDS011;19509;43.862;26.176;2023-01-09T09:18:49;20.10;;;4.07;;
33152;SDS011;19509;43.862;26.176;2023-01-09T09:21:15;11.70;;;4.30;;
33152;SDS011;19509;43.862;26.176;2023-01-09T09:23:41;15.80;;;5.00;;
33152;SDS011;19509;43.862;26.176;2023-01-09T09:26:08;34.10;;;7.43;;
33152;SDS011;19509;43.862;26.176;2023-01-09T09:28:34;16.53;;;4.20;;
33152;SDS011;19509;43.862;26.176;2023-01-09T09:30:59;24.77;;;4.37;;
33152;SDS011;19509;43.862;26.176;2023-01-09T09:33:25;26.93;;;4.80;;
33152;SDS011;19509;43.862;26.176;2023-01-09T09:35:51;19.33;;;4.43;;
33152;SDS011;19509;43.862;26.176;2023-01-09T09:38:16;9.33;;;4.03;;
33152;SDS011;19509;43.862;26.176;2023-01-09T09:40:56;39.87;;;5.87;;
33152;SDS011;19509;43.862;26.176;2023-01-09T09:47:00;45.27;;;5.97;;
33152;SDS011;19509;43.862;26.176;2023-01-09T09:55:16;9.73;;;3.70;;
33152;SDS011;19509;43.862;26.176;2023-01-09T09:57:44;13.10;;;3.43;;
33152;SDS011;19509;43.862;26.176;2023-01-09T10:00:19;14.10;;;4.50;;
33152;SDS011;19509;43.862;26.176;2023-01-09T10:02:50;4.43;;;3.60;;
33152;SDS011;19509;43.862;26.176;2023-01-09T10:05:26;6.87;;;3.00;;
33152;SDS011;19509;43.862;26.176;2023-01-09T10:07:55;3.33;;;3.13;;
33152;SDS011;19509;43.862;26.176;2023-01-09T10:10:28;8.57;;;3.43;;
33152;SDS011;19509;43.862;26.176;2023-01-09T10:13:01;9.40;;;3.43;;
33152;SDS011;19509;43.862;26.176;2023-01-09T10:15:55;7.73;;;3.27;;
33152;SDS011;19509;43.862;26.176;2023-01-09T10:22:12;9.27;;;3.60;;
33152;SDS011;19509;43.862;26.176;2023-01-09T10:25:05;3.53;;;3.33;;
33152;SDS011;19509;43.862;26.176;2023-01-09T10:33:04;11.63;;;3.93;;
33152;SDS011;19509;43.862;26.176;2023-01-09T10:38:22;11.40;;;3.90;;
33152;SDS011;19509;43.862;26.176;2023-01-09T10:40:59;4.37;;;3.70;;
33152;SDS011;19509;43.862;26.176;2023-01-09T10:44:01;15.30;;;4.30;;
33152;SDS011;19509;43.862;26.176;2023-01-09T10:46:26;19.50;;;5.30;;
33152;SDS011;19509;43.862;26.176;2023-01-09T10:49:00;24.73;;;5.30;;
33152;SDS011;19509;43.862;26.176;2023-01-09T10:51:36;14.17;;;5.07;;
33152;SDS011;19509;43.862;26.176;2023-01-09T10:54:12;18.93;;;4.43;;
33152;SDS011;19509;43.862;26.176;2023-01-09T10:56:40;22.50;;;5.33;;
33152;SDS011;19509;43.862;26.176;2023-01-09T10:59:11;22.60;;;5.10;;
33152;SDS011;19509;43.862;26.176;2023-01-09T11:01:37;25.90;;;5.30;;
33152;SDS011;19509;43.862;26.176;2023-01-09T11:04:18;22.77;;;4.90;;
33152;SDS011;19509;43.862;26.176;2023-01-09T11:06:45;23.53;;;5.10;;
33152;SDS011;19509;43.862;26.176;2023-01-09T11:09:14;11.43;;;4.47;;
33152;SDS011;19509;43.862;26.176;2023-01-09T11:11:41;28.97;;;5.40;;
33152;SDS011;19509;43.862;26.176;2023-01-09T11:16:53;16.70;;;3.97;;
33152;SDS011;19509;43.862;26.176;2023-01-09T11:19:20;3.83;;;3.43;;
33152;SDS011;19509;43.862;26.176;2023-01-09T11:21:46;21.00;;;4.67;;
33152;SDS011;19509;43.862;26.176;2023-01-09T11:26:46;10.67;;;4.37;;
33152;SDS011;19509;43.862;26.176;2023-01-09T11:29:13;6.20;;;3.40;;
33152;SDS011;19509;43.862;26.176;2023-01-09T11:31:41;5.77;;;3.87;;
33152;SDS011;19509;43.862;26.176;2023-01-09T11:34:15;23.83;;;5.17;;
33152;SDS011;19509;43.862;26.176;2023-01-09T11:36:43;23.97;;;5.20;;
33152;SDS011;19509;43.862;26.176;2023-01-09T11:41:51;9.43;;;3.90;;
33152;SDS011;19509;43.862;26.176;2023-01-09T11:44:19;12.70;;;3.70;;
33152;SDS011;19509;43.862;26.176;2023-01-09T11:46:46;7.60;;;4.10;;
33152;SDS011;19509;43.862;26.176;2023-01-09T11:51:42;35.23;;;5.07;;
33152;SDS011;19509;43.862;26.176;2023-01-09T11:56:42;9.97;;;3.90;;
33152;SDS011;19509;43.862;26.176;2023-01-09T11:59:09;31.47;;;6.07;;
33152;SDS011;19509;43.862;26.176;2023-01-09T12:13:03;4.67;;;3.57;;
33152;SDS011;19509;43.862;26.176;2023-01-09T12:18:13;27.57;;;5.20;;
33152;SDS011;19509;43.862;26.176;2023-01-09T12:32:12;27.60;;;5.90;;
33152;SDS011;19509;43.862;26.176;2023-01-09T12:34:54;10.80;;;4.30;;
33152;SDS011;19509;43.862;26.176;2023-01-09T12:37:49;7.97;;;4.10;;
33152;SDS011;19509;43.862;26.176;2023-01-09T12:40:52;6.57;;;3.30;;
33152;SDS011;19509;43.862;26.176;2023-01-09T12:46:19;4.93;;;3.77;;
33152;SDS011;19509;43.862;26.176;2023-01-09T12:54:14;47.87;;;6.43;;
33152;SDS011;19509;43.862;26.176;2023-01-09T12:57:34;53.40;;;6.60;;
33152;SDS011;19509;43.862;26.176;2023-01-09T12:59:53;96.33;;;8.57;;
33152;SDS011;19509;43.862;26.176;2023-01-09T13:02:43;37.37;;;5.47;;
33152;SDS011;19509;43.862;26.176;2023-01-09T13:05:17;18.97;;;4.47;;
33152;SDS011;19509;43.862;26.176;2023-01-09T13:07:47;8.83;;;3.17;;
33152;SDS011;19509;43.862;26.176;2023-01-09T13:10:31;24.80;;;4.63;;
33152;SDS011;19509;43.862;26.176;2023-01-09T13:13:03;55.80;;;6.17;;
33152;SDS011;19509;43.862;26.176;2023-01-09T13:15:35;73.43;;;7.07;;
33152;SDS011;19509;43.862;26.176;2023-01-09T13:20:52;15.33;;;4.20;;
33152;SDS011;19509;43.862;26.176;2023-01-09T13:23:29;27.10;;;4.80;;
33152;SDS011;19509;43.862;26.176;2023-01-09T13:25:55;71.93;;;8.93;;
33152;SDS011;19509;43.862;26.176;2023-01-09T13:28:36;17.03;;;4.50;;
33152;SDS011;19509;43.862;26.176;2023-01-09T13:34:16;60.63;;;7.57;;
33152;SDS011;19509;43.862;26.176;2023-01-09T13:36:46;37.60;;;6.07;;
33152;SDS011;19509;43.862;26.176;2023-01-09T13:39:21;7.00;;;4.17;;
33152;SDS011;19509;43.862;26.176;2023-01-09T13:44:44;37.40;;;5.73;;
33152;SDS011;19509;43.862;26.176;2023-01-09T13:59:52;71.70;;;7.87;;
33152;SDS011;19509;43.862;26.176;2023-01-09T14:07:45;99.07;;;14.27;;
33152;SDS011;19509;43.862;26.176;2023-01-09T14:10:26;72.00;;;10.27;;
33152;SDS011;19509;43.862;26.176;2023-01-09T14:12:54;47.40;;;8.70;;
33152;SDS011;19509;43.862;26.176;2023-01-09T14:15:25;19.03;;;5.63;;
33152;SDS011;19509;43.862;26.176;2023-01-09T14:18:05;33.67;;;6.67;;
33152;SDS011;19509;43.862;26.176;2023-01-09T14:20:44;47.93;;;7.30;;
33152;SDS011;19509;43.862;26.176;2023-01-09T14:25:49;22.23;;;5.30;;
33152;SDS011;19509;43.862;26.176;2023-01-09T14:28:20;50.10;;;7.37;;
33152;SDS011;19509;43.862;26.176;2023-01-09T14:31:08;65.40;;;12.73;;
33152;SDS011;19509;43.862;26.176;2023-01-09T14:33:34;56.10;;;7.90;;
33152;SDS011;19509;43.862;26.176;2023-01-09T14:36:16;74.33;;;9.87;;
33152;SDS011;19509;43.862;26.176;2023-01-09T14:38:52;75.17;;;11.53;;
33152;SDS011;19509;43.862;26.176;2023-01-09T14:44:26;120.70;;;11.87;;
33152;SDS011;19509;43.862;26.176;2023-01-09T14:46:54;70.60;;;11.23;;
33152;SDS011;19509;43.862;26.176;2023-01-09T14:49:29;65.80;;;10.37;;
33152;SDS011;19509;43.862;26.176;2023-01-09T14:52:12;126.50;;;12.90;;
33152;SDS011;19509;43.862;26.176;2023-01-09T14:54:45;60.43;;;11.10;;
33152;SDS011;19509;43.862;26.176;2023-01-09T14:57:23;79.30;;;12.03;;
33152;SDS011;19509;43.862;26.176;2023-01-09T15:02:29;119.87;;;14.27;;
33152;SDS011;19509;43.862;26.176;2023-01-09T15:04:59;89.10;;;12.67;;
33152;SDS011;19509;43.862;26.176;2023-01-09T15:07:29;104.77;;;11.00;;
33152;SDS011;19509;43.862;26.176;2023-01-09T15:10:01;130.23;;;14.60;;
33152;SDS011;19509;43.862;26.176;2023-01-09T15:12:27;154.57;;;16.47;;
33152;SDS011;19509;43.862;26.176;2023-01-09T15:14:56;153.43;;;21.53;;
33152;SDS011;19509;43.862;26.176;2023-01-09T15:17:25;129.33;;;19.40;;
33152;SDS011;19509;43.862;26.176;2023-01-09T15:20:00;108.57;;;19.27;;
33152;SDS011;19509;43.862;26.176;2023-01-09T15:22:30;103.20;;;15.00;;
33152;SDS011;19509;43.862;26.176;2023-01-09T15:24:58;107.13;;;11.77;;
33152;SDS011;19509;43.862;26.176;2023-01-09T15:27:50;77.00;;;19.07;;
33152;SDS011;19509;43.862;26.176;2023-01-09T15:30:26;90.50;;;14.20;;
33152;SDS011;19509;43.862;26.176;2023-01-09T15:32:58;73.83;;;12.10;;
33152;SDS011;19509;43.862;26.176;2023-01-09T15:35:45;113.33;;;16.30;;
33152;SDS011;19509;43.862;26.176;2023-01-09T15:38:14;36.80;;;7.93;;
33152;SDS011;19509;43.862;26.176;2023-01-09T15:40:42;78.87;;;10.67;;
33152;SDS011;19509;43.862;26.176;2023-01-09T15:43:16;75.03;;;13.07;;
33152;SDS011;19509;43.862;26.176;2023-01-09T15:45:42;51.20;;;11.50;;
33152;SDS011;19509;43.862;26.176;2023-01-09T15:50:47;52.07;;;9.07;;
33152;SDS011;19509;43.862;26.176;2023-01-09T15:53:16;47.10;;;11.70;;
33152;SDS011;19509;43.862;26.176;2023-01-09T15:55:44;42.37;;;9.07;;
33152;SDS011;19509;43.862;26.176;2023-01-09T16:01:20;35.03;;;13.50;;
33152;SDS011;19509;43.862;26.176;2023-01-09T16:03:47;47.57;;;8.83;;
33152;SDS011;19509;43.862;26.176;2023-01-09T16:06:14;35.60;;;9.83;;
33152;SDS011;19509;43.862;26.176;2023-01-09T16:08:48;40.93;;;12.00;;
33152;SDS011;19509;43.862;26.176;2023-01-09T16:11:38;32.83;;;9.10;;
33152;SDS011;19509;43.862;26.176;2023-01-09T16:14:12;68.40;;;15.90;;
33152;SDS011;19509;43.862;26.176;2023-01-09T16:16:42;13.40;;;6.10;;
33152;SDS011;19509;43.862;26.176;2023-01-09T16:19:44;28.77;;;18.53;;
33152;SDS011;19509;43.862;26.176;2023-01-09T16:22:20;12.70;;;7.07;;
33152;SDS011;19509;43.862;26.176;2023-01-09T16:24:48;10.90;;;4.30;;
33152;SDS011;19509;43.862;26.176;2023-01-09T16:27:24;26.23;;;4.77;;
33152;SDS011;19509;43.862;26.176;2023-01-09T16:30:07;74.87;;;13.23;;
33152;SDS011;19509;43.862;26.176;2023-01-09T16:32:50;48.93;;;9.60;;
33152;SDS011;19509;43.862;26.176;2023-01-09T16:35:17;92.53;;;15.23;;
33152;SDS011;19509;43.862;26.176;2023-01-09T16:37:44;48.80;;;8.20;;
33152;SDS011;19509;43.862;26.176;2023-01-09T16:40:21;50.57;;;8.53;;
33152;SDS011;19509;43.862;26.176;2023-01-09T16:42:53;51.17;;;9.93;;
33152;SDS011;19509;43.862;26.176;2023-01-09T16:45:36;44.23;;;10.63;;
33152;SDS011;19509;43.862;26.176;2023-01-09T16:48:12;36.07;;;8.40;;
33152;SDS011;19509;43.862;26.176;2023-01-09T16:50:39;36.43;;;6.70;;
33152;SDS011;19509;43.862;26.176;2023-01-09T16:53:14;32.77;;;9.57;;
33152;SDS011;19509;43.862;26.176;2023-01-09T16:55:45;77.13;;;16.97;;
33152;SDS011;19509;43.862;26.176;2023-01-09T16:58:15;44.47;;;8.87;;
33152;SDS011;19509;43.862;26.176;2023-01-09T17:00:46;88.77;;;16.27;;
33152;SDS011;19509;43.862;26.176;2023-01-09T17:03:14;72.10;;;12.73;;